sensor_id;sensor_type;location;lat;lon;timestamp;temperature;humidity
5779;DHT22;2916;49.798;10.022;2022-11-15T00:02:09;10.40;99.90
5779;DHT22;2916;49.798;10.022;2022-11-15T00:04:37;10.40;99.90
5779;DHT22;2916;49.798;10.022;2022-11-15T00:07:04;10.40;99.90
5779;DHT22;2916;49.798;10.022;2022-11-15T00:09:31;10.50;99.90
5779;DHT22;2916;49.798;10.022;2022-11-15T00:11:58;10.40;99.90
5779;DHT22;2916;49.798;10.022;2022-11-15T00:14:25;10.40;99.90
5779;DHT22;2916;49.798;10.022;2022-11-15T00:16:51;10.30;99.90
5779;DHT22;2916;49.798;10.022;2022-11-15T00:19:18;10.20;99.90
5779;DHT22;2916;49.798;10.022;2022-11-15T00:21:46;10.20;99.90
5779;DHT22;2916;49.798;10.022;2022-11-15T00:24:13;10.20;99.90
5779;DHT22;2916;49.798;10.022;2022-11-15T00:26:40;10.20;99.90
5779;DHT22;2916;49.798;10.022;2022-11-15T00:29:07;10.10;99.90
5779;DHT22;2916;49.798;10.022;2022-11-15T00:31:34;10.00;99.90
5779;DHT22;2916;49.798;10.022;2022-11-15T00:34:01;10.00;99.90
5779;DHT22;2916;49.798;10.022;2022-11-15T00:36:27;10.00;99.90
5779;DHT22;2916;49.798;10.022;2022-11-15T00:38:56;9.90;99.90
5779;DHT22;2916;49.798;10.022;2022-11-15T00:41:23;9.80;99.90
5779;DHT22;2916;49.798;10.022;2022-11-15T00:43:50;9.80;99.90
5779;DHT22;2916;49.798;10.022;2022-11-15T00:46:16;9.70;99.90
5779;DHT22;2916;49.798;10.022;2022-11-15T00:48:43;9.70;99.90
5779;DHT22;2916;49.798;10.022;2022-11-15T00:51:10;9.60;99.90
5779;DHT22;2916;49.798;10.022;2022-11-15T00:53:37;9.50;99.90
5779;DHT22;2916;49.798;10.022;2022-11-15T00:56:06;9.50;99.90
5779;DHT22;2916;49.798;10.022;2022-11-15T00:58:32;9.50;99.90
5779;DHT22;2916;49.798;10.022;2022-11-15T01:01:06;9.50;99.90
5779;DHT22;2916;49.798;10.022;2022-11-15T01:03:34;9.50;99.90
5779;DHT22;2916;49.798;10.022;2022-11-15T01:06:01;9.60;99.90
5779;DHT22;2916;49.798;10.022;2022-11-15T01:08:27;9.60;99.90
5779;DHT22;2916;49.798;10.022;2022-11-15T01:10:54;9.60;99.90
5779;DHT22;2916;49.798;10.022;2022-11-15T01:13:29;9.60;99.90
5779;DHT22;2916;49.798;10.022;2022-11-15T01:15:56;9.60;99.90
5779;DHT22;2916;49.798;10.022;2022-11-15T01:18:23;9.60;99.90
5779;DHT22;2916;49.798;10.022;2022-11-15T01:20:50;9.60;99.90
5779;DHT22;2916;49.798;10.022;2022-11-15T01:23:17;9.50;99.90
5779;DHT22;2916;49.798;10.022;2022-11-15T01:25:44;9.50;99.90
5779;DHT22;2916;49.798;10.022;2022-11-15T01:28:11;9.40;99.90
5779;DHT22;2916;49.798;10.022;2022-11-15T01:30:39;9.40;99.90
5779;DHT22;2916;49.798;10.022;2022-11-15T01:33:06;9.40;99.90
5779;DHT22;2916;49.798;10.022;2022-11-15T01:35:33;9.30;99.90
5779;DHT22;2916;49.798;10.022;2022-11-15T01:37:59;9.40;99.90
5779;DHT22;2916;49.798;10.022;2022-11-15T01:40:26;9.30;99.90
5779;DHT22;2916;49.798;10.022;2022-11-15T01:42:53;9.40;99.90
5779;DHT22;2916;49.798;10.022;2022-11-15T01:45:20;9.30;99.90
5779;DHT22;2916;49.798;10.022;2022-11-15T01:47:51;9.40;99.90
5779;DHT22;2916;49.798;10.022;2022-11-15T01:50:22;9.40;99.90
5779;DHT22;2916;49.798;10.022;2022-11-15T01:52:50;9.40;99.90
5779;DHT22;2916;49.798;10.022;2022-11-15T01:55:20;9.60;99.90
5779;DHT22;2916;49.798;10.022;2022-11-15T01:57:50;9.50;99.90
5779;DHT22;2916;49.798;10.022;2022-11-15T02:00:17;9.60;99.90
5779;DHT22;2916;49.798;10.022;2022-11-15T02:02:44;9.60;99.90
5779;DHT22;2916;49.798;10.022;2022-11-15T02:05:12;9.60;99.90
5779;DHT22;2916;49.798;10.022;2022-11-15T02:07:39;9.60;99.90
5779;DHT22;2916;49.798;10.022;2022-11-15T02:10:08;9.60;99.90
5779;DHT22;2916;49.798;10.022;2022-11-15T02:12:35;9.60;99.90
5779;DHT22;2916;49.798;10.022;2022-11-15T02:15:05;9.60;99.90
5779;DHT22;2916;49.798;10.022;2022-11-15T02:17:47;9.70;99.90
5779;DHT22;2916;49.798;10.022;2022-11-15T02:20:43;9.70;99.90
5779;DHT22;2916;49.798;10.022;2022-11-15T02:23:43;9.60;99.90
5779;DHT22;2916;49.798;10.022;2022-11-15T02:26:40;9.60;99.90
5779;DHT22;2916;49.798;10.022;2022-11-15T02:29:23;9.50;99.90
5779;DHT22;2916;49.798;10.022;2022-11-15T02:32:01;9.40;99.90
5779;DHT22;2916;49.798;10.022;2022-11-15T02:34:35;9.30;99.90
5779;DHT22;2916;49.798;10.022;2022-11-15T02:37:14;9.20;99.90
5779;DHT22;2916;49.798;10.022;2022-11-15T02:39:45;9.20;99.90
5779;DHT22;2916;49.798;10.022;2022-11-15T02:42:16;9.10;99.90
5779;DHT22;2916;49.798;10.022;2022-11-15T02:45:06;9.00;99.90
5779;DHT22;2916;49.798;10.022;2022-11-15T02:47:41;8.90;99.90
5779;DHT22;2916;49.798;10.022;2022-11-15T02:50:16;8.80;99.90
5779;DHT22;2916;49.798;10.022;2022-11-15T02:52:45;8.70;99.90
5779;DHT22;2916;49.798;10.022;2022-11-15T02:55:33;8.60;99.90
5779;DHT22;2916;49.798;10.022;2022-11-15T02:58:12;8.60;99.90
5779;DHT22;2916;49.798;10.022;2022-11-15T03:00:46;8.50;99.90
5779;DHT22;2916;49.798;10.022;2022-11-15T03:03:39;8.50;99.90
5779;DHT22;2916;49.798;10.022;2022-11-15T03:06:15;8.40;99.90
5779;DHT22;2916;49.798;10.022;2022-11-15T03:08:53;8.30;99.90
5779;DHT22;2916;49.798;10.022;2022-11-15T03:11:22;8.30;99.90
5779;DHT22;2916;49.798;10.022;2022-11-15T03:13:55;8.30;99.90
5779;DHT22;2916;49.798;10.022;2022-11-15T03:16:27;8.30;99.90
5779;DHT22;2916;49.798;10.022;2022-11-15T03:19:02;8.30;99.90
5779;DHT22;2916;49.798;10.022;2022-11-15T03:21:31;8.30;99.90
5779;DHT22;2916;49.798;10.022;2022-11-15T03:24:02;8.20;99.90
5779;DHT22;2916;49.798;10.022;2022-11-15T03:26:31;8.20;99.90
5779;DHT22;2916;49.798;10.022;2022-11-15T03:29:03;8.20;99.90
5779;DHT22;2916;49.798;10.022;2022-11-15T03:31:34;8.20;99.90
5779;DHT22;2916;49.798;10.022;2022-11-15T03:34:22;8.10;99.90
5779;DHT22;2916;49.798;10.022;2022-11-15T03:36:51;8.10;99.90
5779;DHT22;2916;49.798;10.022;2022-11-15T03:39:19;8.10;99.90
5779;DHT22;2916;49.798;10.022;2022-11-15T03:41:49;8.10;99.90
5779;DHT22;2916;49.798;10.022;2022-11-15T03:44:25;8.10;99.90
5779;DHT22;2916;49.798;10.022;2022-11-15T03:46:57;8.10;99.90
5779;DHT22;2916;49.798;10.022;2022-11-15T03:49:31;8.00;99.90
5779;DHT22;2916;49.798;10.022;2022-11-15T03:52:00;8.10;99.90
5779;DHT22;2916;49.798;10.022;2022-11-15T03:54:29;8.10;99.90
5779;DHT22;2916;49.798;10.022;2022-11-15T03:56:56;8.20;99.90
5779;DHT22;2916;49.798;10.022;2022-11-15T03:59:23;8.10;99.90
5779;DHT22;2916;49.798;10.022;2022-11-15T04:01:50;8.10;99.90
5779;DHT22;2916;49.798;10.022;2022-11-15T04:04:17;8.10;99.90
5779;DHT22;2916;49.798;10.022;2022-11-15T04:06:45;8.10;99.90
5779;DHT22;2916;49.798;10.022;2022-11-15T04:09:12;8.10;99.90
5779;DHT22;2916;49.798;10.022;2022-11-15T04:11:38;8.00;99.90
5779;DHT22;2916;49.798;10.022;2022-11-15T04:14:05;7.90;99.90
5779;DHT22;2916;49.798;10.022;2022-11-15T04:16:32;7.80;99.90
5779;DHT22;2916;49.798;10.022;2022-11-15T04:18:59;7.80;99.90
5779;DHT22;2916;49.798;10.022;2022-11-15T04:21:40;7.80;99.90
5779;DHT22;2916;49.798;10.022;2022-11-15T04:24:25;7.70;99.90
5779;DHT22;2916;49.798;10.022;2022-11-15T04:26:52;7.80;99.90
5779;DHT22;2916;49.798;10.022;2022-11-15T04:29:19;7.70;99.90
5779;DHT22;2916;49.798;10.022;2022-11-15T04:32:01;7.70;99.90
5779;DHT22;2916;49.798;10.022;2022-11-15T04:34:28;7.70;99.90
5779;DHT22;2916;49.798;10.022;2022-11-15T04:36:55;7.80;99.90
5779;DHT22;2916;49.798;10.022;2022-11-15T04:39:43;7.70;99.90
5779;DHT22;2916;49.798;10.022;2022-11-15T04:42:10;7.70;99.90
5779;DHT22;2916;49.798;10.022;2022-11-15T04:44:37;7.70;99.90
5779;DHT22;2916;49.798;10.022;2022-11-15T04:47:04;7.70;99.90
5779;DHT22;2916;49.798;10.022;2022-11-15T04:49:31;7.60;99.90
5779;DHT22;2916;49.798;10.022;2022-11-15T04:51:58;7.60;99.90
5779;DHT22;2916;49.798;10.022;2022-11-15T04:54:25;7.50;99.90
5779;DHT22;2916;49.798;10.022;2022-11-15T04:56:53;7.40;99.90
5779;DHT22;2916;49.798;10.022;2022-11-15T04:59:20;7.40;99.90
5779;DHT22;2916;49.798;10.022;2022-11-15T05:01:47;7.50;99.90
5779;DHT22;2916;49.798;10.022;2022-11-15T05:04:14;7.50;99.90
5779;DHT22;2916;49.798;10.022;2022-11-15T05:06:47;7.40;99.90
5779;DHT22;2916;49.798;10.022;2022-11-15T05:09:14;7.20;99.90
5779;DHT22;2916;49.798;10.022;2022-11-15T05:11:41;7.10;99.90
5779;DHT22;2916;49.798;10.022;2022-11-15T05:14:09;7.00;99.90
5779;DHT22;2916;49.798;10.022;2022-11-15T05:16:37;7.00;99.90
5779;DHT22;2916;49.798;10.022;2022-11-15T05:19:04;6.90;99.90
5779;DHT22;2916;49.798;10.022;2022-11-15T05:21:32;7.00;99.90
5779;DHT22;2916;49.798;10.022;2022-11-15T05:23:59;6.90;99.90
5779;DHT22;2916;49.798;10.022;2022-11-15T05:26:26;6.90;99.90
5779;DHT22;2916;49.798;10.022;2022-11-15T05:28:54;6.90;99.90
5779;DHT22;2916;49.798;10.022;2022-11-15T05:31:23;6.90;99.90
5779;DHT22;2916;49.798;10.022;2022-11-15T05:33:51;7.00;99.90
5779;DHT22;2916;49.798;10.022;2022-11-15T05:36:21;6.90;99.90
5779;DHT22;2916;49.798;10.022;2022-11-15T05:38:52;6.90;99.90
5779;DHT22;2916;49.798;10.022;2022-11-15T05:41:22;6.90;99.90
5779;DHT22;2916;49.798;10.022;2022-11-15T05:43:51;6.90;99.90
5779;DHT22;2916;49.798;10.022;2022-11-15T05:46:18;7.00;99.90
5779;DHT22;2916;49.798;10.022;2022-11-15T05:48:49;7.00;99.90
5779;DHT22;2916;49.798;10.022;2022-11-15T05:51:17;7.00;99.90
5779;DHT22;2916;49.798;10.022;2022-11-15T05:53:46;6.90;99.90
5779;DHT22;2916;49.798;10.022;2022-11-15T05:56:14;7.00;99.90
5779;DHT22;2916;49.798;10.022;2022-11-15T05:58:41;7.10;99.90
5779;DHT22;2916;49.798;10.022;2022-11-15T06:01:08;7.00;99.90
5779;DHT22;2916;49.798;10.022;2022-11-15T06:03:35;7.00;99.90
5779;DHT22;2916;49.798;10.022;2022-11-15T06:06:04;7.00;99.90
5779;DHT22;2916;49.798;10.022;2022-11-15T06:08:31;7.00;99.90
5779;DHT22;2916;49.798;10.022;2022-11-15T06:11:03;7.00;99.90
5779;DHT22;2916;49.798;10.022;2022-11-15T06:13:30;6.90;99.90
5779;DHT22;2916;49.798;10.022;2022-11-15T06:15:57;6.90;99.90
5779;DHT22;2916;49.798;10.022;2022-11-15T06:18:25;6.90;99.90
5779;DHT22;2916;49.798;10.022;2022-11-15T06:20:52;6.80;99.90
5779;DHT22;2916;49.798;10.022;2022-11-15T06:23:20;6.80;99.90
5779;DHT22;2916;49.798;10.022;2022-11-15T06:25:47;6.80;99.90
5779;DHT22;2916;49.798;10.022;2022-11-15T06:28:13;6.80;99.90
5779;DHT22;2916;49.798;10.022;2022-11-15T06:30:40;6.90;99.90
5779;DHT22;2916;49.798;10.022;2022-11-15T06:33:07;6.90;99.90
5779;DHT22;2916;49.798;10.022;2022-11-15T06:35:35;6.90;99.90
5779;DHT22;2916;49.798;10.022;2022-11-15T06:38:04;6.90;99.90
5779;DHT22;2916;49.798;10.022;2022-11-15T06:40:34;6.90;99.90
5779;DHT22;2916;49.798;10.022;2022-11-15T06:43:02;7.00;99.90
5779;DHT22;2916;49.798;10.022;2022-11-15T06:45:29;7.00;99.90
5779;DHT22;2916;49.798;10.022;2022-11-15T06:47:57;7.00;99.90
5779;DHT22;2916;49.798;10.022;2022-11-15T06:50:24;7.10;99.90
5779;DHT22;2916;49.798;10.022;2022-11-15T06:52:51;7.10;99.90
5779;DHT22;2916;49.798;10.022;2022-11-15T06:55:18;7.10;99.90
5779;DHT22;2916;49.798;10.022;2022-11-15T06:57:50;7.10;99.90
5779;DHT22;2916;49.798;10.022;2022-11-15T07:00:18;7.20;99.90
5779;DHT22;2916;49.798;10.022;2022-11-15T07:02:46;7.20;99.90
5779;DHT22;2916;49.798;10.022;2022-11-15T07:05:13;7.20;99.90
5779;DHT22;2916;49.798;10.022;2022-11-15T07:07:40;7.20;99.90
5779;DHT22;2916;49.798;10.022;2022-11-15T07:10:08;7.20;99.90
5779;DHT22;2916;49.798;10.022;2022-11-15T07:12:35;7.10;99.90
5779;DHT22;2916;49.798;10.022;2022-11-15T07:15:04;7.10;99.90
5779;DHT22;2916;49.798;10.022;2022-11-15T07:17:32;7.10;99.90
5779;DHT22;2916;49.798;10.022;2022-11-15T07:19:58;7.00;99.90
5779;DHT22;2916;49.798;10.022;2022-11-15T07:22:25;7.00;99.90
5779;DHT22;2916;49.798;10.022;2022-11-15T07:24:52;7.10;99.90
5779;DHT22;2916;49.798;10.022;2022-11-15T07:27:19;7.20;99.90
5779;DHT22;2916;49.798;10.022;2022-11-15T07:29:46;7.30;99.90
5779;DHT22;2916;49.798;10.022;2022-11-15T07:32:14;7.40;99.90
5779;DHT22;2916;49.798;10.022;2022-11-15T07:34:41;7.50;99.90
5779;DHT22;2916;49.798;10.022;2022-11-15T07:37:08;7.50;99.90
5779;DHT22;2916;49.798;10.022;2022-11-15T07:39:35;7.50;99.90
5779;DHT22;2916;49.798;10.022;2022-11-15T07:42:02;7.50;99.90
5779;DHT22;2916;49.798;10.022;2022-11-15T07:44:47;7.60;99.90
5779;DHT22;2916;49.798;10.022;2022-11-15T07:47:15;7.60;99.90
5779;DHT22;2916;49.798;10.022;2022-11-15T07:49:42;7.70;99.90
5779;DHT22;2916;49.798;10.022;2022-11-15T07:52:08;7.70;99.90
5779;DHT22;2916;49.798;10.022;2022-11-15T07:54:35;7.60;99.90
5779;DHT22;2916;49.798;10.022;2022-11-15T07:57:02;7.70;99.90
5779;DHT22;2916;49.798;10.022;2022-11-15T07:59:29;7.70;99.90
5779;DHT22;2916;49.798;10.022;2022-11-15T08:01:56;7.80;99.90
5779;DHT22;2916;49.798;10.022;2022-11-15T08:04:24;7.80;99.90
5779;DHT22;2916;49.798;10.022;2022-11-15T08:06:51;7.90;99.90
5779;DHT22;2916;49.798;10.022;2022-11-15T08:09:18;7.90;99.90
5779;DHT22;2916;49.798;10.022;2022-11-15T08:11:45;7.90;99.90
5779;DHT22;2916;49.798;10.022;2022-11-15T08:14:12;7.90;99.90
5779;DHT22;2916;49.798;10.022;2022-11-15T08:16:39;7.90;99.90
5779;DHT22;2916;49.798;10.022;2022-11-15T08:19:05;7.90;99.90
5779;DHT22;2916;49.798;10.022;2022-11-15T08:21:34;8.00;99.90
5779;DHT22;2916;49.798;10.022;2022-11-15T08:24:01;8.10;99.90
5779;DHT22;2916;49.798;10.022;2022-11-15T08:26:27;8.00;99.90
5779;DHT22;2916;49.798;10.022;2022-11-15T08:28:57;8.10;99.90
5779;DHT22;2916;49.798;10.022;2022-11-15T08:31:24;8.10;99.90
5779;DHT22;2916;49.798;10.022;2022-11-15T08:33:50;8.30;99.90
5779;DHT22;2916;49.798;10.022;2022-11-15T08:36:17;8.30;99.90
5779;DHT22;2916;49.798;10.022;2022-11-15T08:38:46;8.30;99.90
5779;DHT22;2916;49.798;10.022;2022-11-15T08:41:15;8.50;99.90
5779;DHT22;2916;49.798;10.022;2022-11-15T08:43:44;8.60;99.90
5779;DHT22;2916;49.798;10.022;2022-11-15T08:46:13;8.70;99.90
5779;DHT22;2916;49.798;10.022;2022-11-15T08:48:40;8.60;99.90
5779;DHT22;2916;49.798;10.022;2022-11-15T08:51:07;8.70;99.90
5779;DHT22;2916;49.798;10.022;2022-11-15T08:53:34;8.90;99.90
5779;DHT22;2916;49.798;10.022;2022-11-15T08:56:02;9.00;99.90
5779;DHT22;2916;49.798;10.022;2022-11-15T08:58:29;9.10;99.90
5779;DHT22;2916;49.798;10.022;2022-11-15T09:00:56;9.20;99.90
5779;DHT22;2916;49.798;10.022;2022-11-15T09:03:23;9.30;99.90
5779;DHT22;2916;49.798;10.022;2022-11-15T09:05:54;9.30;99.90
5779;DHT22;2916;49.798;10.022;2022-11-15T09:08:22;9.30;99.90
5779;DHT22;2916;49.798;10.022;2022-11-15T09:10:49;9.30;99.90
5779;DHT22;2916;49.798;10.022;2022-11-15T09:13:18;9.50;99.90
5779;DHT22;2916;49.798;10.022;2022-11-15T09:15:44;9.70;99.90
5779;DHT22;2916;49.798;10.022;2022-11-15T09:18:12;9.60;99.90
5779;DHT22;2916;49.798;10.022;2022-11-15T09:20:38;9.70;99.90
5779;DHT22;2916;49.798;10.022;2022-11-15T09:23:05;9.70;99.90
5779;DHT22;2916;49.798;10.022;2022-11-15T09:25:32;9.90;99.90
5779;DHT22;2916;49.798;10.022;2022-11-15T09:27:59;9.90;99.90
5779;DHT22;2916;49.798;10.022;2022-11-15T09:30:27;10.00;99.90
5779;DHT22;2916;49.798;10.022;2022-11-15T09:32:55;10.20;99.90
5779;DHT22;2916;49.798;10.022;2022-11-15T09:35:21;10.20;99.90
5779;DHT22;2916;49.798;10.022;2022-11-15T09:37:48;10.30;99.90
5779;DHT22;2916;49.798;10.022;2022-11-15T09:40:16;10.30;99.90
5779;DHT22;2916;49.798;10.022;2022-11-15T09:43:13;10.50;99.90
5779;DHT22;2916;49.798;10.022;2022-11-15T09:45:52;10.60;99.90
5779;DHT22;2916;49.798;10.022;2022-11-15T09:48:45;10.70;99.90
5779;DHT22;2916;49.798;10.022;2022-11-15T09:51:21;10.80;99.90
5779;DHT22;2916;49.798;10.022;2022-11-15T09:53:54;10.90;99.90
5779;DHT22;2916;49.798;10.022;2022-11-15T09:56:26;11.10;99.90
5779;DHT22;2916;49.798;10.022;2022-11-15T09:58:59;11.10;99.90
5779;DHT22;2916;49.798;10.022;2022-11-15T10:01:36;11.20;99.90
5779;DHT22;2916;49.798;10.022;2022-11-15T10:04:05;11.20;99.90
5779;DHT22;2916;49.798;10.022;2022-11-15T10:06:35;11.30;99.90
5779;DHT22;2916;49.798;10.022;2022-11-15T10:09:09;11.40;99.90
5779;DHT22;2916;49.798;10.022;2022-11-15T10:11:38;11.60;99.90
5779;DHT22;2916;49.798;10.022;2022-11-15T10:14:10;11.60;99.90
5779;DHT22;2916;49.798;10.022;2022-11-15T10:17:16;11.60;99.90
5779;DHT22;2916;49.798;10.022;2022-11-15T10:19:55;11.80;99.90
5779;DHT22;2916;49.798;10.022;2022-11-15T10:22:29;12.00;99.90
5779;DHT22;2916;49.798;10.022;2022-11-15T10:25:11;12.00;99.90
5779;DHT22;2916;49.798;10.022;2022-11-15T10:27:39;12.00;99.90
5779;DHT22;2916;49.798;10.022;2022-11-15T10:30:11;12.10;99.90
5779;DHT22;2916;49.798;10.022;2022-11-15T10:32:42;12.10;99.90
5779;DHT22;2916;49.798;10.022;2022-11-15T10:35:20;12.20;99.90
5779;DHT22;2916;49.798;10.022;2022-11-15T10:37:48;12.20;99.90
5779;DHT22;2916;49.798;10.022;2022-11-15T10:40:17;12.30;99.90
5779;DHT22;2916;49.798;10.022;2022-11-15T10:42:44;12.40;99.90
5779;DHT22;2916;49.798;10.022;2022-11-15T10:45:27;12.50;99.90
5779;DHT22;2916;49.798;10.022;2022-11-15T10:48:21;12.60;99.90
5779;DHT22;2916;49.798;10.022;2022-11-15T10:50:49;12.60;99.90
5779;DHT22;2916;49.798;10.022;2022-11-15T10:53:22;12.70;99.90
5779;DHT22;2916;49.798;10.022;2022-11-15T10:55:51;12.70;99.90
5779;DHT22;2916;49.798;10.022;2022-11-15T10:58:30;12.90;99.90
5779;DHT22;2916;49.798;10.022;2022-11-15T11:01:09;12.90;99.90
5779;DHT22;2916;49.798;10.022;2022-11-15T11:03:39;12.90;99.90
5779;DHT22;2916;49.798;10.022;2022-11-15T11:06:10;13.10;99.90
5779;DHT22;2916;49.798;10.022;2022-11-15T11:08:37;13.20;99.90
5779;DHT22;2916;49.798;10.022;2022-11-15T11:11:05;13.20;99.90
5779;DHT22;2916;49.798;10.022;2022-11-15T11:13:34;13.10;99.90
5779;DHT22;2916;49.798;10.022;2022-11-15T11:16:27;13.10;99.90
5779;DHT22;2916;49.798;10.022;2022-11-15T11:19:03;13.30;99.90
5779;DHT22;2916;49.798;10.022;2022-11-15T11:21:41;13.40;99.90
5779;DHT22;2916;49.798;10.022;2022-11-15T11:24:16;13.40;99.90
5779;DHT22;2916;49.798;10.022;2022-11-15T11:27:01;13.50;99.90
5779;DHT22;2916;49.798;10.022;2022-11-15T11:29:43;13.50;99.90
5779;DHT22;2916;49.798;10.022;2022-11-15T11:32:28;13.60;99.90
5779;DHT22;2916;49.798;10.022;2022-11-15T11:35:05;13.60;99.90
5779;DHT22;2916;49.798;10.022;2022-11-15T11:37:38;13.60;99.90
5779;DHT22;2916;49.798;10.022;2022-11-15T11:40:15;13.80;99.90
5779;DHT22;2916;49.798;10.022;2022-11-15T11:42:50;13.80;99.90
5779;DHT22;2916;49.798;10.022;2022-11-15T11:45:36;13.90;99.90
5779;DHT22;2916;49.798;10.022;2022-11-15T11:48:12;14.00;99.90
5779;DHT22;2916;49.798;10.022;2022-11-15T11:50:42;14.00;99.90
5779;DHT22;2916;49.798;10.022;2022-11-15T11:53:14;13.80;99.90
5779;DHT22;2916;49.798;10.022;2022-11-15T11:55:44;13.80;99.90
5779;DHT22;2916;49.798;10.022;2022-11-15T11:58:15;13.90;99.90
5779;DHT22;2916;49.798;10.022;2022-11-15T12:00:47;13.90;99.90
5779;DHT22;2916;49.798;10.022;2022-11-15T12:03:23;13.70;99.90
5779;DHT22;2916;49.798;10.022;2022-11-15T12:05:56;13.70;99.90
5779;DHT22;2916;49.798;10.022;2022-11-15T12:08:30;13.70;99.90
5779;DHT22;2916;49.798;10.022;2022-11-15T12:11:03;13.70;99.90
5779;DHT22;2916;49.798;10.022;2022-11-15T12:13:34;13.90;99.90
5779;DHT22;2916;49.798;10.022;2022-11-15T12:16:06;14.10;99.90
5779;DHT22;2916;49.798;10.022;2022-11-15T12:18:34;14.20;99.90
5779;DHT22;2916;49.798;10.022;2022-11-15T12:21:06;14.30;99.90
5779;DHT22;2916;49.798;10.022;2022-11-15T12:23:41;14.20;99.90
5779;DHT22;2916;49.798;10.022;2022-11-15T12:26:14;14.30;99.90
5779;DHT22;2916;49.798;10.022;2022-11-15T12:28:46;14.30;99.90
5779;DHT22;2916;49.798;10.022;2022-11-15T12:31:17;14.30;99.90
5779;DHT22;2916;49.798;10.022;2022-11-15T12:33:46;14.20;99.90
5779;DHT22;2916;49.798;10.022;2022-11-15T12:39:08;14.30;99.90
5779;DHT22;2916;49.798;10.022;2022-11-15T12:41:36;14.20;99.90
5779;DHT22;2916;49.798;10.022;2022-11-15T12:44:04;14.30;99.90
5779;DHT22;2916;49.798;10.022;2022-11-15T12:47:04;14.20;99.90
5779;DHT22;2916;49.798;10.022;2022-11-15T12:49:49;14.20;99.90
5779;DHT22;2916;49.798;10.022;2022-11-15T12:52:16;14.10;99.90
5779;DHT22;2916;49.798;10.022;2022-11-15T12:58:26;14.00;99.90
5779;DHT22;2916;49.798;10.022;2022-11-15T13:00:53;14.10;99.90
5779;DHT22;2916;49.798;10.022;2022-11-15T13:03:23;14.00;99.90
5779;DHT22;2916;49.798;10.022;2022-11-15T13:06:09;13.90;99.90
5779;DHT22;2916;49.798;10.022;2022-11-15T13:08:41;13.80;99.90
5779;DHT22;2916;49.798;10.022;2022-11-15T13:11:43;13.60;99.90
5779;DHT22;2916;49.798;10.022;2022-11-15T13:14:53;13.60;99.90
5779;DHT22;2916;49.798;10.022;2022-11-15T13:17:39;13.60;99.90
5779;DHT22;2916;49.798;10.022;2022-11-15T13:20:26;13.70;99.90
5779;DHT22;2916;49.798;10.022;2022-11-15T13:23:01;13.60;99.90
5779;DHT22;2916;49.798;10.022;2022-11-15T13:26:02;13.70;99.90
5779;DHT22;2916;49.798;10.022;2022-11-15T13:28:33;13.70;99.90
5779;DHT22;2916;49.798;10.022;2022-11-15T13:31:35;13.70;99.90
5779;DHT22;2916;49.798;10.022;2022-11-15T13:34:13;13.70;99.90
5779;DHT22;2916;49.798;10.022;2022-11-15T13:36:42;13.70;99.90
5779;DHT22;2916;49.798;10.022;2022-11-15T13:39:23;13.80;99.90
5779;DHT22;2916;49.798;10.022;2022-11-15T13:41:52;13.90;99.90
5779;DHT22;2916;49.798;10.022;2022-11-15T13:44:20;13.90;99.90
5779;DHT22;2916;49.798;10.022;2022-11-15T13:47:00;13.90;99.90
5779;DHT22;2916;49.798;10.022;2022-11-15T13:49:29;13.90;99.90
5779;DHT22;2916;49.798;10.022;2022-11-15T13:51:57;14.00;99.90
5779;DHT22;2916;49.798;10.022;2022-11-15T13:54:26;14.10;99.90
5779;DHT22;2916;49.798;10.022;2022-11-15T13:56:56;14.10;99.90
5779;DHT22;2916;49.798;10.022;2022-11-15T13:59:25;14.10;99.90
5779;DHT22;2916;49.798;10.022;2022-11-15T14:01:56;14.10;99.90
5779;DHT22;2916;49.798;10.022;2022-11-15T14:04:25;13.90;99.90
5779;DHT22;2916;49.798;10.022;2022-11-15T14:06:56;13.80;99.90
5779;DHT22;2916;49.798;10.022;2022-11-15T14:09:30;13.70;99.90
5779;DHT22;2916;49.798;10.022;2022-11-15T14:11:59;13.60;99.90
5779;DHT22;2916;49.798;10.022;2022-11-15T14:14:27;13.70;99.90
5779;DHT22;2916;49.798;10.022;2022-11-15T14:16:57;13.60;99.90
5779;DHT22;2916;49.798;10.022;2022-11-15T14:19:36;13.60;99.90
5779;DHT22;2916;49.798;10.022;2022-11-15T14:22:16;13.60;99.90
5779;DHT22;2916;49.798;10.022;2022-11-15T14:24:45;13.60;99.90
5779;DHT22;2916;49.798;10.022;2022-11-15T14:27:23;13.70;99.90
5779;DHT22;2916;49.798;10.022;2022-11-15T14:29:50;13.70;99.90
5779;DHT22;2916;49.798;10.022;2022-11-15T14:32:20;13.70;99.90
5779;DHT22;2916;49.798;10.022;2022-11-15T14:34:48;13.60;99.90
5779;DHT22;2916;49.798;10.022;2022-11-15T14:37:21;13.60;99.90
5779;DHT22;2916;49.798;10.022;2022-11-15T14:39:49;13.60;99.90
5779;DHT22;2916;49.798;10.022;2022-11-15T14:42:16;13.60;99.90
5779;DHT22;2916;49.798;10.022;2022-11-15T14:44:43;13.50;99.90
5779;DHT22;2916;49.798;10.022;2022-11-15T14:47:10;13.40;99.90
5779;DHT22;2916;49.798;10.022;2022-11-15T14:49:39;13.30;99.90
5779;DHT22;2916;49.798;10.022;2022-11-15T14:52:19;13.30;99.90
5779;DHT22;2916;49.798;10.022;2022-11-15T14:54:48;13.20;99.90
5779;DHT22;2916;49.798;10.022;2022-11-15T14:57:15;13.00;99.90
5779;DHT22;2916;49.798;10.022;2022-11-15T14:59:42;12.90;99.90
5779;DHT22;2916;49.798;10.022;2022-11-15T15:02:15;12.90;99.90
5779;DHT22;2916;49.798;10.022;2022-11-15T15:04:46;13.00;99.90
5779;DHT22;2916;49.798;10.022;2022-11-15T15:07:13;13.00;99.90
5779;DHT22;2916;49.798;10.022;2022-11-15T15:09:41;13.10;99.90
5779;DHT22;2916;49.798;10.022;2022-11-15T15:12:17;13.10;99.90
5779;DHT22;2916;49.798;10.022;2022-11-15T15:14:44;13.10;99.90
5779;DHT22;2916;49.798;10.022;2022-11-15T15:17:11;13.20;99.90
5779;DHT22;2916;49.798;10.022;2022-11-15T15:19:38;13.10;99.90
5779;DHT22;2916;49.798;10.022;2022-11-15T15:22:11;13.10;99.90
5779;DHT22;2916;49.798;10.022;2022-11-15T15:24:40;13.10;99.90
5779;DHT22;2916;49.798;10.022;2022-11-15T15:27:07;13.00;99.90
5779;DHT22;2916;49.798;10.022;2022-11-15T15:29:34;12.80;99.90
5779;DHT22;2916;49.798;10.022;2022-11-15T15:32:00;12.80;99.90
5779;DHT22;2916;49.798;10.022;2022-11-15T15:34:28;12.60;99.90
5779;DHT22;2916;49.798;10.022;2022-11-15T15:37:08;12.50;99.90
5779;DHT22;2916;49.798;10.022;2022-11-15T15:39:36;12.50;99.90
5779;DHT22;2916;49.798;10.022;2022-11-15T15:42:03;12.40;99.90
5779;DHT22;2916;49.798;10.022;2022-11-15T15:44:30;12.30;99.90
5779;DHT22;2916;49.798;10.022;2022-11-15T15:46:57;12.30;99.90
5779;DHT22;2916;49.798;10.022;2022-11-15T15:49:24;12.40;99.90
5779;DHT22;2916;49.798;10.022;2022-11-15T15:51:51;12.30;99.90
5779;DHT22;2916;49.798;10.022;2022-11-15T15:54:19;12.40;99.90
5779;DHT22;2916;49.798;10.022;2022-11-15T15:56:46;12.40;99.90
5779;DHT22;2916;49.798;10.022;2022-11-15T15:59:13;12.40;99.90
5779;DHT22;2916;49.798;10.022;2022-11-15T16:01:40;12.40;99.90
5779;DHT22;2916;49.798;10.022;2022-11-15T16:04:07;12.50;99.90
5779;DHT22;2916;49.798;10.022;2022-11-15T16:06:36;12.40;99.90
5779;DHT22;2916;49.798;10.022;2022-11-15T16:09:05;12.30;99.90
5779;DHT22;2916;49.798;10.022;2022-11-15T16:11:33;12.20;99.90
5779;DHT22;2916;49.798;10.022;2022-11-15T16:14:00;12.20;99.90
5779;DHT22;2916;49.798;10.022;2022-11-15T16:16:27;12.10;99.90
5779;DHT22;2916;49.798;10.022;2022-11-15T16:18:54;12.10;99.90
5779;DHT22;2916;49.798;10.022;2022-11-15T16:21:21;12.00;99.90
5779;DHT22;2916;49.798;10.022;2022-11-15T16:23:48;12.00;99.90
5779;DHT22;2916;49.798;10.022;2022-11-15T16:26:20;12.00;99.90